Aérodrome :
LOGIN :

S'inscrire | Disclaimer

   EN    FR    IT 

 










Légende :    VFR   VFR Marginal   IFR   IFR Intensif   IFR Très Intensif
Visi : 
Plafond : 
>= 8 km
>= 3000ft
5 à 8 km
1000 à 3000 ft
1500m à 5 km
500 à 1000 ft
800 à 1500m
200 à 500 ft
< 800m
< 200 ft
Symboles :   Orages  Brouillard  Fortes neiges  Fortes précipitations  Vent > 20 kt
SIGMETs :   Divers  Orages  Givrage  Turbulence  Onde Orograph.  Cendres Volcan.







- Altitude de l'aérodrome : 779 ft
- Code IATA : CMF
- Voir les cartes d'approche


LFLB - Chambery / Aix-Les-Bains

DERNIER METAR :
  • 220600Z AUTO 00000KT 8000 FEW028 BKN047 06/05 Q1022 TEMPO 4000 BR

METARs EXPIRÉS :
  • 220530Z AUTO 23001KT 9999 FEW029 OVC047 07/06 Q1022 TEMPO 4000 BR
  • 220500Z AUTO 00000KT 9999 BKN047 07/06 Q1022
  • 220430Z AUTO 00000KT 9999 FEW028 OVC047 07/06 Q1022
  • 220400Z AUTO 00000KT 9999 OVC048 07/07 Q1022
  • 220330Z AUTO 12002KT 9999 FEW032 OVC047 07/07 Q1022
  • 220300Z AUTO VRB02KT 9999 FEW032 OVC047 07/07 Q1022

TAF TAF LFLB
Valide du 22 à 06h jusqu'au 23 à 06h UTC


220500Z 2206/2306 VRB03KT 9999 BKN045
TEMPO 2206/2209 4000 BR
BECMG 2209/2212 CAVOK
Pas de NOTAMs connus pour ce terrain.



MET'MAP, la Météo Aéronautique d'un coup d'oeil ! - Copyright ORBIFLY Décembre 2007 - Disclaimer

ORBIFLY MET'MAP TEAM :

Programmation & Développement : Alexandra Zaïnal
Conception & Développement : Baudouin d'Aumeries
Co-Programmation & Développement : Marc-Olivier Méhu
Soutien technique & logistique : Manuel Goepfert

Contact : metmap@orbifly.com




SOURCES & CREDITS :

   NOAA